Time;durP1;ratioP1;P1;durP2;ratioP2;P2;SDS_P1;SDS_P2;PMS_P1;PMS_P2;Temp;Humidity;BMP_temperature;BMP_pressure;BME280_temperature;BME280_humidity;BME280_pressure;Samples;Min_cycle;Max_cycle;Signal;HPM_P1;HPM_P2
2021/07/15 00:00:42;;;;;;;11.07;6.70;;;17.90;81.00;;;;;;4973210;28;20455;-85
2021/07/15 00:03:12;;;;;;;11.77;7.35;;;17.90;81.00;;;;;;4973158;28;20109;-88
2021/07/15 00:05:40;;;;;;;9.25;6.70;;;18.00;81.00;;;;;;4973457;28;20050;-86
2021/07/15 00:08:08;;;;;;;11.30;6.63;;;17.90;80.90;;;;;;4973334;28;20504;-87
2021/07/15 00:10:43;;;;;;;14.27;6.90;;;17.90;80.90;;;;;;4973169;28;20503;-84
2021/07/15 00:13:11;;;;;;;10.32;6.60;;;17.90;80.90;;;;;;4973655;28;20058;-87
2021/07/15 00:15:41;;;;;;;9.65;7.10;;;17.90;80.90;;;;;;4973175;28;20067;-86
2021/07/15 00:18:10;;;;;;;12.32;7.88;;;17.90;80.80;;;;;;4973263;28;20055;-88
2021/07/15 00:20:40;;;;;;;11.38;6.88;;;17.90;80.80;;;;;;4973341;28;20062;-84
2021/07/15 00:23:07;;;;;;;10.18;7.10;;;17.90;80.70;;;;;;4989321;28;20417;-87
2021/07/15 00:25:34;;;;;;;11.95;6.97;;;17.90;80.60;;;;;;4974294;28;20043;-87
2021/07/15 00:28:02;;;;;;;10.93;7.00;;;17.90;80.60;;;;;;4974265;28;20503;-85
2021/07/15 00:30:29;;;;;;;14.43;7.05;;;17.90;80.60;;;;;;4972972;28;20074;-86
2021/07/15 00:32:56;;;;;;;12.82;7.45;;;17.90;80.60;;;;;;4974427;28;20047;-84
2021/07/15 00:35:23;;;;;;;11.00;7.00;;;17.90;80.60;;;;;;4973343;28;20135;-85
2021/07/15 00:37:50;;;;;;;11.50;7.32;;;17.90;80.60;;;;;;4973502;28;20142;-86
2021/07/15 00:40:18;;;;;;;11.30;7.25;;;17.90;80.60;;;;;;4973195;28;20070;-87
2021/07/15 00:42:45;;;;;;;13.20;7.45;;;17.80;80.50;;;;;;4973271;28;20062;-84
2021/07/15 00:45:15;;;;;;;10.70;7.35;;;17.80;80.60;;;;;;4972983;28;20055;-88
2021/07/15 00:47:43;;;;;;;12.25;7.93;;;17.80;80.60;;;;;;4973574;28;20085;-87
2021/07/15 00:50:11;;;;;;;14.07;8.10;;;17.80;80.50;;;;;;4972980;28;20408;-88
2021/07/15 00:52:43;;;;;;;12.82;7.97;;;17.80;80.50;;;;;;4974142;28;20106;-88
2021/07/15 00:55:29;;;;;;;14.23;7.95;;;17.80;80.50;;;;;;4972911;28;20137;-87
2021/07/15 00:57:56;;;;;;;11.55;7.40;;;17.80;80.60;;;;;;4972851;28;20134;-86
2021/07/15 01:00:24;;;;;;;13.82;8.00;;;17.70;80.60;;;;;;4973834;28;20047;-88
2021/07/15 01:02:54;;;;;;;15.50;7.57;;;17.70;80.60;;;;;;4974167;28;20055;-87
2021/07/15 01:05:34;;;;;;;11.77;6.50;;;17.80;80.60;;;;;;4972872;28;20188;-87
2021/07/15 01:08:02;;;;;;;12.70;7.75;;;17.70;80.60;;;;;;4973177;28;20057;-89
2021/07/15 01:10:34;;;;;;;11.30;7.50;;;17.70;80.60;;;;;;4972788;28;20404;-85
2021/07/15 01:13:24;;;;;;;10.40;7.40;;;17.70;80.70;;;;;;4990280;28;20058;-86
2021/07/15 01:16:17;;;;;;;14.40;7.63;;;17.70;80.70;;;;;;4992711;28;20501;-86
2021/07/15 01:19:13;;;;;;;14.20;7.57;;;17.70;80.70;;;;;;4976251;28;20433;-86
2021/07/15 01:22:20;;;;;;;11.40;7.05;;;17.70;80.80;;;;;;4987520;28;20308;-87
2021/07/15 01:25:18;;;;;;;16.05;6.97;;;17.70;80.70;;;;;;4992340;28;20051;-89
2021/07/15 01:28:15;;;;;;;11.23;6.63;;;17.70;80.80;;;;;;4992263;28;20055;-86
2021/07/15 01:30:49;;;;;;;12.80;7.15;;;17.70;80.80;;;;;;4956964;28;20102;-87
2021/07/15 01:33:16;;;;;;;9.43;6.70;;;17.60;80.70;;;;;;4972817;28;20409;-87
2021/07/15 01:35:58;;;;;;;12.95;7.32;;;17.70;80.80;;;;;;4973005;28;20067;-86
2021/07/15 01:38:30;;;;;;;11.65;6.07;;;17.60;80.80;;;;;;4957717;28;20492;-88
2021/07/15 01:41:15;;;;;;;9.90;6.65;;;17.60;80.80;;;;;;4972901;28;20067;-84
2021/07/15 01:43:45;;;;;;;8.73;6.13;;;17.60;80.80;;;;;;4957688;28;20055;-86
2021/07/15 01:46:14;;;;;;;11.80;6.78;;;17.60;80.70;;;;;;4972218;28;20074;-86
2021/07/15 01:48:44;;;;;;;12.00;6.38;;;17.60;80.70;;;;;;4957584;28;20044;-88
2021/07/15 01:51:12;;;;;;;11.15;6.90;;;17.60;80.70;;;;;;4972379;28;20150;-87
2021/07/15 01:53:40;;;;;;;12.10;6.35;;;17.50;80.70;;;;;;4972533;28;20440;-87
2021/07/15 01:56:11;;;;;;;10.82;6.75;;;17.50;80.70;;;;;;4972324;28;20063;-84
2021/07/15 01:58:40;;;;;;;13.05;6.75;;;17.50;80.60;;;;;;4972080;28;20059;-88
2021/07/15 02:01:09;;;;;;;8.85;6.40;;;17.50;80.60;;;;;;4972605;28;20055;-83
2021/07/15 02:03:44;;;;;;;10.05;7.20;;;17.50;80.60;;;;;;4957523;28;20052;-85
2021/07/15 02:06:13;;;;;;;10.75;6.47;;;17.50;80.50;;;;;;4972172;28;20054;-85
2021/07/15 02:08:43;;;;;;;10.68;5.80;;;17.50;80.50;;;;;;4972075;28;20051;-86
2021/07/15 02:11:12;;;;;;;12.90;6.75;;;17.40;80.40;;;;;;4975016;28;20047;-86
2021/07/15 02:13:42;;;;;;;10.65;6.20;;;17.40;80.40;;;;;;4975380;28;20082;-85
2021/07/15 02:16:10;;;;;;;10.43;6.25;;;17.40;80.40;;;;;;4975141;28;20072;-85
2021/07/15 02:18:42;;;;;;;11.13;6.75;;;17.40;80.30;;;;;;4975350;28;20059;-86
2021/07/15 02:21:10;;;;;;;14.27;6.88;;;17.40;80.30;;;;;;4975175;28;20054;-87
2021/07/15 02:23:37;;;;;;;12.98;6.05;;;17.40;80.30;;;;;;4990875;28;20134;-87
2021/07/15 02:26:05;;;;;;;11.07;6.13;;;17.40;80.30;;;;;;4990330;28;20051;-87
2021/07/15 02:28:33;;;;;;;13.05;6.80;;;17.30;80.30;;;;;;4990924;28;20046;-87
2021/07/15 02:31:11;;;;;;;10.70;6.03;;;17.30;80.30;;;;;;4975180;28;20054;-87
2021/07/15 02:33:47;;;;;;;10.65;6.38;;;17.20;80.30;;;;;;4975089;28;20065;-86
2021/07/15 02:36:22;;;;;;;10.07;6.45;;;17.20;80.40;;;;;;4974801;28;20417;-87
2021/07/15 02:38:53;;;;;;;9.88;6.40;;;17.20;80.40;;;;;;4974999;28;20047;-88
2021/07/15 02:41:20;;;;;;;11.20;6.43;;;17.10;80.40;;;;;;4974707;28;20061;-87
2021/07/15 02:43:48;;;;;;;10.02;6.47;;;17.10;80.40;;;;;;4974836;28;20055;-85
2021/07/15 02:46:15;;;;;;;9.32;6.20;;;17.10;80.50;;;;;;4974663;28;20066;-86
2021/07/15 02:48:42;;;;;;;9.60;6.20;;;17.10;80.50;;;;;;4975052;28;20058;-86
2021/07/15 02:51:09;;;;;;;11.88;6.75;;;17.10;80.50;;;;;;4974690;28;20508;-88
2021/07/15 02:53:37;;;;;;;10.25;6.45;;;17.10;80.50;;;;;;4974747;28;20073;-85
2021/07/15 02:56:23;;;;;;;10.95;5.93;;;17.00;80.50;;;;;;4974321;28;20059;-86
2021/07/15 02:59:12;;;;;;;9.38;6.93;;;17.00;80.50;;;;;;4974556;28;20050;-85
2021/07/15 03:02:05;;;;;;;11.35;6.20;;;17.00;80.50;;;;;;4974565;28;20054;-85
2021/07/15 03:05:00;;;;;;;8.88;5.60;;;17.00;80.50;;;;;;4948513;28;20054;-85
2021/07/15 03:07:33;;;;;;;11.07;6.60;;;16.90;80.50;;;;;;4974227;28;20050;-87
2021/07/15 03:10:01;;;;;;;9.90;6.03;;;16.90;80.50;;;;;;4973427;28;20046;-87
2021/07/15 03:12:34;;;;;;;11.90;6.10;;;16.90;80.50;;;;;;4989137;28;20054;-87
2021/07/15 03:15:02;;;;;;;10.53;6.47;;;16.90;80.50;;;;;;4993947;28;20064;-85
2021/07/15 03:17:35;;;;;;;9.98;6.47;;;16.90;80.40;;;;;;4993437;28;20504;-87
2021/07/15 03:20:12;;;;;;;8.90;6.38;;;16.80;80.50;;;;;;4988846;28;20162;-87
2021/07/15 03:22:44;;;;;;;11.05;6.43;;;16.80;80.40;;;;;;4975385;28;20058;-88
2021/07/15 03:25:16;;;;;;;9.65;6.72;;;16.80;80.50;;;;;;4974019;28;20062;-87
2021/07/15 03:27:50;;;;;;;8.25;6.20;;;16.80;80.50;;;;;;4974283;28;20054;-88
2021/07/15 03:30:18;;;;;;;13.02;6.35;;;16.70;80.50;;;;;;4974264;28;20226;-85
2021/07/15 03:32:48;;;;;;;10.30;6.32;;;16.70;80.60;;;;;;4974191;28;20054;-89
2021/07/15 03:35:17;;;;;;;8.23;6.03;;;16.70;80.60;;;;;;4989966;28;20131;-86
2021/07/15 03:37:47;;;;;;;8.45;6.53;;;16.60;80.60;;;;;;4989727;28;20078;-88
2021/07/15 03:40:17;;;;;;;12.32;6.47;;;16.70;80.60;;;;;;4990072;28;20058;-86
2021/07/15 03:42:46;;;;;;;14.30;7.15;;;16.60;80.60;;;;;;4990163;28;20093;-88
2021/07/15 03:45:20;;;;;;;12.93;7.03;;;16.60;80.70;;;;;;4990076;28;20085;-88
2021/07/15 03:47:51;;;;;;;11.10;6.70;;;16.60;80.70;;;;;;4989904;28;20137;-86
2021/07/15 03:50:21;;;;;;;15.35;6.22;;;16.60;80.80;;;;;;4989975;28;20129;-87
2021/07/15 03:52:51;;;;;;;11.93;6.72;;;16.60;80.80;;;;;;4989708;28;20051;-85
2021/07/15 03:55:23;;;;;;;12.13;5.93;;;16.60;80.90;;;;;;4990023;28;20476;-89
2021/07/15 03:57:51;;;;;;;9.48;6.30;;;16.60;80.90;;;;;;4989673;28;20050;-84
2021/07/15 04:00:25;;;;;;;9.15;6.20;;;16.60;80.90;;;;;;4989539;28;20054;-87
2021/07/15 04:02:58;;;;;;;9.38;6.50;;;16.60;80.90;;;;;;4989998;28;20070;-84
2021/07/15 04:05:28;;;;;;;12.05;6.25;;;16.50;80.90;;;;;;4989662;28;20408;-86
2021/07/15 04:07:57;;;;;;;14.10;6.50;;;16.50;80.90;;;;;;4989832;28;20078;-85
2021/07/15 04:10:26;;;;;;;9.52;6.00;;;16.50;80.90;;;;;;4980049;28;20572;-85
2021/07/15 04:12:57;;;;;;;12.27;6.03;;;16.50;81.00;;;;;;4970397;28;20494;-86
2021/07/15 04:15:54;;;;;;;12.45;6.18;;;16.50;81.00;;;;;;4954488;28;20138;-86
2021/07/15 04:18:32;;;;;;;12.65;5.82;;;16.40;80.90;;;;;;4953524;28;20062;-85
2021/07/15 04:20:59;;;;;;;8.30;5.60;;;16.40;81.00;;;;;;4966069;28;20505;-89
2021/07/15 04:23:30;;;;;;;17.17;6.13;;;16.40;81.00;;;;;;4973379;28;20083;-88
2021/07/15 04:25:58;;;;;;;9.90;6.00;;;16.40;81.00;;;;;;4973636;28;20047;-88
2021/07/15 04:28:26;;;;;;;9.90;5.43;;;16.40;81.00;;;;;;4973121;28;20588;-85
2021/07/15 04:31:48;;;;;;;10.55;5.80;;;16.40;81.00;;;;;;4973589;28;20073;-85
2021/07/15 04:34:17;;;;;;;9.95;6.10;;;16.40;81.10;;;;;;4918118;29;20510;-88
2021/07/15 04:36:45;;;;;;;6.43;4.97;;;16.40;81.10;;;;;;4933835;29;20056;-87
2021/07/15 04:39:13;;;;;;;13.70;5.57;;;16.40;81.10;;;;;;4934036;29;20107;-88
2021/07/15 04:41:42;;;;;;;15.02;5.45;;;16.30;81.20;;;;;;4933969;29;20073;-88
2021/07/15 04:44:13;;;;;;;11.50;5.45;;;16.40;81.20;;;;;;4934023;29;20083;-87
2021/07/15 04:46:42;;;;;;;10.50;5.55;;;16.30;81.20;;;;;;4933846;29;20047;-84
2021/07/15 04:49:10;;;;;;;8.13;4.95;;;16.30;81.20;;;;;;4937300;29;20047;-86
2021/07/15 04:51:41;;;;;;;8.90;5.53;;;16.30;81.20;;;;;;4937495;29;20052;-86
2021/07/15 04:54:08;;;;;;;12.75;5.82;;;16.30;81.30;;;;;;4937614;29;20058;-89
2021/07/15 04:56:41;;;;;;;15.25;6.00;;;16.30;81.40;;;;;;4937179;29;20071;-86
2021/07/15 04:59:12;;;;;;;8.98;4.68;;;16.30;81.40;;;;;;4937714;29;20059;-88
2021/07/15 05:01:39;;;;;;;10.98;5.38;;;16.30;81.40;;;;;;4937611;29;20054;-85
2021/07/15 05:04:07;;;;;;;10.35;5.70;;;16.20;81.50;;;;;;4937335;29;20506;-89
2021/07/15 05:06:36;;;;;;;15.07;5.85;;;16.30;81.50;;;;;;4937105;29;20135;-87
2021/07/15 05:09:07;;;;;;;11.55;5.50;;;16.30;81.50;;;;;;4944768;28;20534;-90
2021/07/15 05:11:35;;;;;;;8.75;4.80;;;16.30;81.50;;;;;;4976589;28;20051;-86
2021/07/15 05:14:03;;;;;;;11.27;5.53;;;16.30;81.60;;;;;;4976840;28;20055;-87
2021/07/15 05:16:31;;;;;;;11.30;5.75;;;16.20;81.60;;;;;;4992929;28;20050;-86
2021/07/15 05:18:58;;;;;;;9.45;5.30;;;16.20;81.60;;;;;;4992660;28;20085;-88
2021/07/15 05:21:25;;;;;;;13.15;6.25;;;16.20;81.60;;;;;;4987676;28;20449;-88
2021/07/15 05:23:53;;;;;;;8.23;5.40;;;16.30;81.70;;;;;;4992522;28;20472;-88
2021/07/15 05:26:20;;;;;;;11.02;5.10;;;16.30;81.70;;;;;;4992356;28;20051;-87
2021/07/15 05:28:48;;;;;;;13.82;5.20;;;16.30;81.70;;;;;;4991740;28;20047;-86
2021/07/15 05:31:21;;;;;;;14.63;5.60;;;16.30;81.70;;;;;;4976903;28;20460;-86
2021/07/15 05:33:53;;;;;;;10.18;5.18;;;16.30;81.80;;;;;;4976452;28;20066;-87
2021/07/15 05:36:20;;;;;;;13.85;6.00;;;16.30;81.80;;;;;;4976480;28;20055;-89
2021/07/15 05:38:47;;;;;;;10.50;5.05;;;16.30;81.90;;;;;;4976377;28;20066;-86
2021/07/15 05:41:17;;;;;;;10.88;5.40;;;16.30;81.90;;;;;;4976336;28;20076;-88
2021/07/15 05:43:44;;;;;;;11.35;6.03;;;16.30;81.90;;;;;;4976145;28;20129;-89
2021/07/15 05:46:11;;;;;;;19.00;6.13;;;16.30;81.90;;;;;;4975807;28;20518;-87
2021/07/15 05:48:39;;;;;;;16.15;6.00;;;16.30;81.90;;;;;;4976044;28;20051;-86
2021/07/15 05:51:06;;;;;;;18.65;6.00;;;16.30;81.90;;;;;;4976300;28;20049;-87
2021/07/15 05:53:33;;;;;;;11.00;5.63;;;16.40;81.90;;;;;;4976109;28;20079;-86
2021/07/15 05:56:00;;;;;;;15.00;6.35;;;16.40;81.90;;;;;;4976191;28;20074;-88
2021/07/15 05:58:27;;;;;;;12.52;5.70;;;16.40;82.00;;;;;;4975145;28;20059;-88
2021/07/15 06:00:54;;;;;;;14.57;5.85;;;16.40;82.00;;;;;;4975942;28;20049;-87
2021/07/15 06:03:22;;;;;;;12.38;6.18;;;16.40;82.00;;;;;;4975743;28;20046;-89
2021/07/15 06:05:49;;;;;;;13.07;5.88;;;16.40;82.00;;;;;;4973763;28;20042;-87
2021/07/15 06:08:19;;;;;;;15.48;6.97;;;16.40;82.00;;;;;;4971672;28;20137;-87
2021/07/15 06:10:49;;;;;;;11.30;6.60;;;16.40;82.00;;;;;;4952614;28;20117;-88
2021/07/15 06:13:16;;;;;;;23.58;7.13;;;16.40;82.10;;;;;;4974130;28;20046;-86
2021/07/15 06:15:43;;;;;;;15.70;6.88;;;16.40;82.10;;;;;;4974324;28;20058;-87
2021/07/15 06:18:13;;;;;;;14.88;6.28;;;16.50;82.20;;;;;;4990467;28;20117;-87
2021/07/15 06:20:41;;;;;;;10.93;5.85;;;16.50;82.20;;;;;;4983069;28;20431;-88
2021/07/15 06:23:08;;;;;;;12.77;6.57;;;16.60;82.30;;;;;;4974182;28;20059;-86
2021/07/15 06:25:36;;;;;;;14.23;6.75;;;16.70;82.20;;;;;;4974471;28;20485;-87
2021/07/15 06:28:03;;;;;;;10.68;6.85;;;16.70;82.20;;;;;;4989965;28;20130;-89
2021/07/15 06:30:35;;;;;;;15.70;7.18;;;16.80;82.30;;;;;;4973887;28;20050;-87
2021/07/15 06:33:05;;;;;;;12.30;7.07;;;16.80;82.30;;;;;;4974042;28;20519;-86
2021/07/15 06:35:53;;;;;;;15.95;7.07;;;16.90;82.20;;;;;;4974155;28;20046;-90
2021/07/15 06:39:03;;;;;;;16.40;6.90;;;16.90;82.30;;;;;;4974518;28;20492;-88
2021/07/15 06:41:33;;;;;;;13.80;6.75;;;17.00;82.30;;;;;;4974080;28;20057;-86
2021/07/15 06:44:00;;;;;;;19.33;6.18;;;17.10;82.20;;;;;;4975496;28;20047;-89
2021/07/15 06:46:27;;;;;;;11.40;6.63;;;17.20;82.20;;;;;;4973082;28;20560;-87
2021/07/15 06:48:54;;;;;;;12.27;6.22;;;17.30;82.10;;;;;;4973578;28;20051;-86
2021/07/15 06:51:27;;;;;;;15.48;6.68;;;17.40;81.90;;;;;;4975869;28;20054;-86
2021/07/15 06:53:54;;;;;;;15.77;6.55;;;17.40;81.80;;;;;;4973370;28;20051;-87
2021/07/15 06:56:21;;;;;;;15.80;6.88;;;17.50;81.70;;;;;;4973276;28;20098;-88
2021/07/15 07:02:54;;;;;;;13.88;6.28;;;17.80;81.40;;;;;;4877104;29;20072;-87
2021/07/15 07:05:21;;;;;;;13.60;6.85;;;17.90;81.20;;;;;;4862507;29;20063;-89
2021/07/15 07:07:49;;;;;;;12.00;6.35;;;18.00;81.10;;;;;;4861417;29;20048;-86
2021/07/15 07:10:19;;;;;;;13.52;6.13;;;18.00;80.80;;;;;;4857324;29;20054;-89
2021/07/15 07:12:48;;;;;;;18.05;6.70;;;18.10;80.50;;;;;;4876863;29;20060;-89
2021/07/15 07:15:23;;;;;;;12.23;6.10;;;18.20;80.30;;;;;;4862542;29;20075;-90
2021/07/15 07:18:03;;;;;;;11.95;5.68;;;18.30;80.10;;;;;;4861992;29;20052;-87
2021/07/15 07:20:43;;;;;;;22.83;6.60;;;18.40;80.00;;;;;;4862896;29;20128;-88
2021/07/15 07:23:17;;;;;;;13.15;5.97;;;18.40;79.70;;;;;;4876675;29;20072;-87
2021/07/15 07:25:44;;;;;;;9.23;5.65;;;18.50;79.60;;;;;;4877088;29;20092;-88
2021/07/15 07:28:12;;;;;;;10.50;5.60;;;18.50;79.40;;;;;;4876903;29;20128;-87
2021/07/15 07:30:42;;;;;;;11.98;6.28;;;18.60;79.40;;;;;;4861532;29;20590;-88
2021/07/15 07:33:10;;;;;;;16.13;6.00;;;18.60;79.00;;;;;;4877041;29;20053;-85
2021/07/15 07:35:40;;;;;;;11.52;5.65;;;18.60;78.60;;;;;;4861871;29;20044;-88
2021/07/15 07:38:10;;;;;;;14.05;5.88;;;18.60;78.50;;;;;;4861641;29;20071;-89
2021/07/15 07:40:39;;;;;;;11.27;5.18;;;18.60;78.40;;;;;;4972457;28;20069;-89
2021/07/15 07:43:06;;;;;;;15.85;6.15;;;18.70;78.50;;;;;;4989063;28;20062;-87
2021/07/15 07:45:46;;;;;;;13.05;6.25;;;18.70;78.60;;;;;;4987240;28;20058;-89
2021/07/15 07:48:17;;;;;;;10.93;5.68;;;18.70;78.50;;;;;;4988642;28;20050;-89
2021/07/15 07:51:07;;;;;;;9.75;5.50;;;18.70;78.60;;;;;;4968387;28;20047;-88
2021/07/15 07:53:35;;;;;;;14.13;6.15;;;18.80;78.50;;;;;;4988606;28;20082;-88
2021/07/15 07:56:03;;;;;;;10.18;5.45;;;18.80;78.30;;;;;;4989096;28;20053;-85
2021/07/15 07:58:30;;;;;;;8.63;5.45;;;18.80;78.40;;;;;;4988128;28;20070;-88
2021/07/15 08:01:01;;;;;;;14.15;6.00;;;18.80;78.50;;;;;;4985627;28;20046;-90
2021/07/15 08:03:39;;;;;;;9.00;5.80;;;18.90;78.50;;;;;;4972777;28;20051;-90
2021/07/15 08:06:07;;;;;;;11.68;6.10;;;18.90;78.40;;;;;;4972546;28;20047;-89
2021/07/15 08:08:38;;;;;;;8.63;5.57;;;18.90;78.70;;;;;;4972050;28;20062;-88
2021/07/15 08:11:16;;;;;;;10.15;5.60;;;19.00;78.70;;;;;;4972700;28;20460;-85
2021/07/15 08:13:43;;;;;;;10.60;5.72;;;19.10;78.60;;;;;;4987930;28;20126;-89
2021/07/15 08:16:10;;;;;;;9.48;5.40;;;19.10;78.70;;;;;;4988679;28;20063;-88
2021/07/15 08:18:53;;;;;;;11.70;5.07;;;19.20;78.80;;;;;;4986942;28;20088;-88
2021/07/15 08:21:21;;;;;;;10.95;5.43;;;19.30;78.80;;;;;;4976339;28;20051;-88
2021/07/15 08:27:36;;;;;;;12.88;5.50;;;19.40;78.10;;;;;;4972190;28;20109;-92
2021/07/15 08:30:48;;;;;;;;;;;;;;;;;;;;;
2021/07/15 08:33:34;;;;;;;;;;;;;;;;;;;;;
2021/07/15 08:36:05;;;;;;;13.95;5.78;;;19.60;77.80;;;;;;4977254;28;20046;-90
2021/07/15 08:39:12;;;;;;;;;;;;;;;;;;;;;
2021/07/15 08:41:46;;;;;;;11.80;5.68;;;19.80;77.60;;;;;;4917940;29;20048;-90
2021/07/15 08:44:39;;;;;;;8.25;4.75;;;19.90;77.40;;;;;;4913838;29;20118;-86
2021/07/15 08:47:11;;;;;;;10.27;5.00;;;19.90;77.20;;;;;;4917086;29;20518;-89
2021/07/15 08:49:40;;;;;;;8.77;5.28;;;19.90;76.70;;;;;;4917746;29;20148;-87
2021/07/15 08:52:07;;;;;;;10.88;5.10;;;19.90;76.60;;;;;;4917362;29;20415;-87
2021/07/15 08:57:46;;;;;;;12.55;6.07;;;20.00;77.40;;;;;;4935532;29;20150;-88
2021/07/15 09:04:17;;;;;;;10.27;5.43;;;20.20;77.40;;;;;;4917335;29;20095;-89
2021/07/15 09:06:52;;;;;;;8.48;5.15;;;20.30;77.50;;;;;;4917016;29;20183;-90
2021/07/15 09:09:58;;;;;;;11.88;5.10;;;20.40;77.00;;;;;;4916131;29;20542;-89
2021/07/15 09:13:09;;;;;;;;;;;;;;;;;;;;;
2021/07/15 09:15:39;;;;;;;8.45;4.53;;;20.60;76.70;;;;;;4936250;29;20051;-90
2021/07/15 09:18:30;;;;;;;10.02;5.07;;;20.70;76.40;;;;;;4921147;29;20055;-90
2021/07/15 09:21:31;;;;;;;9.75;5.53;;;20.80;75.80;;;;;;4923129;29;20052;-89
2021/07/15 09:24:22;;;;;;;9.38;5.10;;;20.80;75.80;;;;;;4900795;29;20052;-88
2021/07/15 09:27:08;;;;;;;7.35;4.50;;;20.90;76.00;;;;;;4916829;29;20052;-89
2021/07/15 09:30:33;;;;;;;;;;;;;;;;;;;;;
2021/07/15 09:33:16;;;;;;;10.55;4.60;;;21.00;75.30;;;;;;4878827;29;20423;-88
2021/07/15 09:36:04;;;;;;;;;;;;;;;;;;;;;
2021/07/15 09:39:46;;;;;;;7.40;4.22;;;21.20;74.80;;;;;;4916601;29;20111;-91
2021/07/15 09:42:20;;;;;;;7.95;4.40;;;21.20;74.60;;;;;;4915915;29;20515;-88
2021/07/15 09:44:52;;;;;;;6.70;3.67;;;21.30;74.60;;;;;;4916650;29;20127;-88
2021/07/15 09:47:44;;;;;;;8.80;4.10;;;21.40;74.50;;;;;;4916095;29;20100;-88
2021/07/15 09:50:17;;;;;;;10.25;4.30;;;21.40;74.20;;;;;;4916326;29;20052;-88
2021/07/15 09:52:45;;;;;;;8.80;3.88;;;21.40;74.20;;;;;;4916236;29;20048;-90
2021/07/15 09:55:34;;;;;;;5.43;3.53;;;21.50;74.30;;;;;;4916369;29;20052;-86
2021/07/15 09:59:03;;;;;;;10.30;4.30;;;21.60;74.30;;;;;;4864980;29;20064;-87
2021/07/15 10:02:05;;;;;;;10.63;4.13;;;21.70;73.90;;;;;;4841285;29;20141;-88
2021/07/15 10:05:15;;;;;;;7.55;4.03;;;21.80;74.00;;;;;;4826250;29;20085;-88
2021/07/15 10:11:33;;;;;;;11.88;4.30;;;22.00;74.10;;;;;;4839908;29;20528;-88
2021/07/15 10:14:09;;;;;;;12.77;4.57;;;22.10;73.60;;;;;;4841329;29;20080;-87
2021/07/15 10:17:08;;;;;;;8.40;4.50;;;22.10;73.20;;;;;;4869236;29;20186;-88
2021/07/15 10:20:18;;;;;;;8.23;4.03;;;22.20;73.30;;;;;;4906924;29;20048;-89
2021/07/15 10:23:15;;;;;;;8.55;3.90;;;22.30;73.00;;;;;;4895627;29;20061;-89
2021/07/15 10:25:45;;;;;;;5.28;3.58;;;22.40;73.00;;;;;;4896775;29;20056;-90
2021/07/15 10:28:50;;;;;;;;;;;;;;;;;;;;;
2021/07/15 10:31:33;;;;;;;9.73;4.65;;;22.50;72.60;;;;;;4840534;29;20512;-89
2021/07/15 10:34:01;;;;;;;15.65;4.20;;;22.60;72.40;;;;;;4840861;29;20061;-90
2021/07/15 10:36:55;;;;;;;9.30;4.38;;;22.60;72.30;;;;;;4826570;29;20061;-92
2021/07/15 10:40:02;;;;;;;9.65;4.70;;;22.60;71.60;;;;;;4826711;29;20050;-89
2021/07/15 10:43:46;;;;;;;8.88;4.65;;;22.70;72.20;;;;;;4750274;30;20574;-91
2021/07/15 10:49:45;;;;;;;;;;;;;;;;;;;;;
2021/07/15 10:55:38;;;;;;;;;;;;;;;;;;;;;
2021/07/15 11:02:04;;;;;;;;;;;;;;;;;;;;;
2021/07/15 11:05:21;;;;;;;8.30;4.13;;;22.60;71.10;;;;;;4768270;30;20092;-88
2021/07/15 11:08:08;;;;;;;;;;;;;;;;;;;;;
2021/07/15 11:25:33;;;;;;;5.75;2.55;;;22.70;71.60;;;;;;5109556;27;20124;-88
2021/07/15 11:28:16;;;;;;;28.15;3.00;;;23.00;70.60;;;;;;5088317;28;20052;-88
2021/07/15 11:30:50;;;;;;;10.52;2.75;;;23.00;70.10;;;;;;5088530;28;20511;-88
2021/07/15 11:39:36;;;;;;;8.52;3.08;;;23.10;69.90;;;;;;5078263;28;20114;-85
2021/07/15 11:42:33;;;;;;;11.25;3.30;;;23.00;69.70;;;;;;5087925;28;20066;-87
2021/07/15 11:45:47;;;;;;;9.27;3.20;;;23.00;69.80;;;;;;5069221;28;20147;-89
2021/07/15 11:49:02;;;;;;;9.70;3.50;;;23.00;69.90;;;;;;5066923;28;20518;-87
2021/07/15 11:51:34;;;;;;;10.02;2.97;;;23.00;70.70;;;;;;5067469;28;20135;-86
2021/07/15 11:54:32;;;;;;;11.40;3.72;;;23.00;70.10;;;;;;5067689;28;20041;-84
2021/07/15 11:57:21;;;;;;;7.50;3.50;;;23.10;69.70;;;;;;5067159;28;20048;-87
2021/07/15 11:59:50;;;;;;;10.65;2.88;;;23.10;70.20;;;;;;5051110;28;20423;-87
2021/07/15 12:02:37;;;;;;;10.60;3.00;;;23.20;70.00;;;;;;5085651;28;20053;-86
2021/07/15 12:05:30;;;;;;;7.70;2.78;;;23.20;69.50;;;;;;5087635;28;20045;-88
2021/07/15 12:08:13;;;;;;;11.30;2.72;;;23.30;69.10;;;;;;5087741;28;20059;-85
2021/07/15 12:10:49;;;;;;;14.77;3.47;;;23.30;68.80;;;;;;5084926;28;20048;-88
2021/07/15 12:13:20;;;;;;;5.55;2.50;;;23.40;69.00;;;;;;5087001;28;20131;-89
2021/07/15 12:15:54;;;;;;;7.10;2.83;;;23.40;68.50;;;;;;5087722;28;20504;-90
2021/07/15 12:18:35;;;;;;;10.07;3.08;;;23.40;68.30;;;;;;5088564;28;20044;-89
2021/07/15 12:21:25;;;;;;;11.07;2.80;;;23.50;68.30;;;;;;5083073;28;20435;-90
2021/07/15 12:24:18;;;;;;;9.35;3.10;;;23.60;68.50;;;;;;5084734;28;20058;-86
2021/07/15 12:27:04;;;;;;;14.63;3.10;;;23.70;68.30;;;;;;5054640;28;20076;-90
2021/07/15 12:29:37;;;;;;;8.90;3.03;;;23.70;68.30;;;;;;5054791;28;20053;-87
2021/07/15 12:32:07;;;;;;;7.28;3.05;;;23.80;67.80;;;;;;5054598;28;20102;-86
2021/07/15 12:34:34;;;;;;;6.40;2.88;;;23.80;67.70;;;;;;5055250;28;20053;-89
2021/07/15 12:37:22;;;;;;;9.88;3.42;;;23.70;67.50;;;;;;5054415;28;20069;-87
2021/07/15 12:40:12;;;;;;;10.52;3.45;;;23.70;67.50;;;;;;5044194;28;20051;-88
2021/07/15 12:42:39;;;;;;;10.13;3.20;;;23.70;68.00;;;;;;5054466;28;20049;-86
2021/07/15 12:45:21;;;;;;;8.38;3.38;;;23.70;67.70;;;;;;5055042;28;20056;-88
2021/07/15 12:48:00;;;;;;;6.82;3.30;;;23.70;67.90;;;;;;5054335;28;20053;-88
2021/07/15 12:50:30;;;;;;;11.82;3.33;;;23.70;68.10;;;;;;5053961;28;20045;-86
2021/07/15 12:53:12;;;;;;;9.73;3.22;;;23.70;68.00;;;;;;5054369;28;20099;-90
2021/07/15 12:55:48;;;;;;;12.38;3.10;;;23.60;68.20;;;;;;5054241;28;20053;-90
2021/07/15 12:58:22;;;;;;;10.50;3.05;;;23.70;68.40;;;;;;5055148;28;20459;-86
2021/07/15 13:01:01;;;;;;;6.72;3.03;;;23.60;68.20;;;;;;5054302;28;20555;-90
2021/07/15 13:03:32;;;;;;;6.07;3.10;;;23.60;68.10;;;;;;5053796;28;20111;-88
2021/07/15 13:06:00;;;;;;;7.90;3.20;;;23.60;68.40;;;;;;5053662;28;20053;-90
2021/07/15 13:08:49;;;;;;;7.03;2.95;;;23.60;68.50;;;;;;5053919;28;20053;-89
2021/07/15 13:14:22;;;;;;;8.93;2.70;;;23.60;69.30;;;;;;5021827;28;20060;-89
2021/07/15 13:16:52;;;;;;;5.32;3.00;;;23.60;68.20;;;;;;5053928;28;20052;-88
2021/07/15 13:19:27;;;;;;;7.47;2.97;;;23.60;68.20;;;;;;5053361;28;20053;-89
2021/07/15 13:22:12;;;;;;;7.32;3.20;;;23.50;68.10;;;;;;5053405;28;20057;-89
2021/07/15 13:24:43;;;;;;;5.35;2.60;;;23.50;68.10;;;;;;5053300;28;20431;-88
2021/07/15 13:27:20;;;;;;;12.05;3.47;;;23.50;68.10;;;;;;5053617;28;20102;-87
2021/07/15 13:29:50;;;;;;;7.60;3.35;;;23.50;68.30;;;;;;5053341;28;20069;-88
2021/07/15 13:32:23;;;;;;;6.35;3.13;;;23.50;68.10;;;;;;5053224;28;20053;-89
2021/07/15 13:34:58;;;;;;;6.97;2.80;;;23.50;68.20;;;;;;5053266;28;20045;-89
2021/07/15 13:37:31;;;;;;;8.00;2.85;;;23.50;68.20;;;;;;5053375;28;20418;-88
2021/07/15 13:40:25;;;;;;;7.87;2.90;;;23.50;68.30;;;;;;5053383;28;20048;-88
2021/07/15 13:43:26;;;;;;;9.70;2.65;;;23.40;68.00;;;;;;5053398;28;20049;-88
2021/07/15 13:45:59;;;;;;;6.82;2.65;;;23.40;68.10;;;;;;5053147;28;20170;-87
2021/07/15 13:48:30;;;;;;;10.05;3.03;;;23.40;68.20;;;;;;5052997;28;20053;-90
2021/07/15 13:51:07;;;;;;;8.13;3.10;;;23.40;68.20;;;;;;5053016;28;20560;-88
2021/07/15 13:53:35;;;;;;;8.13;2.95;;;23.30;67.90;;;;;;5054182;28;20048;-88
2021/07/15 13:56:03;;;;;;;8.60;3.22;;;23.30;67.90;;;;;;5053057;28;20052;-88
2021/07/15 13:58:33;;;;;;;8.40;3.25;;;23.30;68.00;;;;;;5052688;28;20440;-86
2021/07/15 14:01:08;;;;;;;9.27;2.80;;;23.20;68.50;;;;;;5052835;28;20508;-88
2021/07/15 14:03:39;;;;;;;10.63;2.60;;;23.20;68.90;;;;;;5052859;28;20492;-88
2021/07/15 14:06:16;;;;;;;5.93;2.63;;;23.20;68.60;;;;;;5052739;28;20123;-88
2021/07/15 14:08:55;;;;;;;4.90;2.50;;;23.20;68.40;;;;;;5053764;28;20132;-89
2021/07/15 14:11:25;;;;;;;9.55;2.90;;;23.20;68.30;;;;;;5077666;28;20055;-90
2021/07/15 14:13:57;;;;;;;6.68;2.38;;;23.20;68.60;;;;;;5072410;28;20500;-88
2021/07/15 14:16:29;;;;;;;7.53;2.70;;;23.10;68.20;;;;;;5072085;28;20471;-88
2021/07/15 14:19:07;;;;;;;8.07;2.97;;;23.10;68.20;;;;;;5072679;28;20048;-89
2021/07/15 14:22:19;;;;;;;6.72;2.83;;;23.10;68.50;;;;;;5072355;28;20048;-89
2021/07/15 14:24:46;;;;;;;6.95;2.90;;;23.10;68.40;;;;;;5073149;28;20155;-88
2021/07/15 14:27:22;;;;;;;6.82;3.00;;;23.10;68.10;;;;;;5072460;28;20044;-88
2021/07/15 14:29:58;;;;;;;6.65;2.83;;;23.00;68.10;;;;;;5072320;28;20054;-87
2021/07/15 14:32:31;;;;;;;14.48;3.63;;;23.00;68.30;;;;;;5071914;28;20459;-88